sensor_id;sensor_type;location;lat;lon;timestamp;P1;durP1;ratioP1;P2;durP2;ratioP2
22571;SDS011;11452;53.368;14.658;2023-05-07T00:04:57;5.67;;;4.23;;
22571;SDS011;11452;53.368;14.658;2023-05-07T00:10:03;4.60;;;4.00;;
22571;SDS011;11452;53.368;14.658;2023-05-07T00:15:10;5.57;;;4.17;;
22571;SDS011;11452;53.368;14.658;2023-05-07T00:20:16;5.57;;;3.87;;
22571;SDS011;11452;53.368;14.658;2023-05-07T00:25:21;5.17;;;3.50;;
22571;SDS011;11452;53.368;14.658;2023-05-07T00:30:27;5.23;;;4.23;;
22571;SDS011;11452;53.368;14.658;2023-05-07T00:35:32;4.80;;;3.53;;
22571;SDS011;11452;53.368;14.658;2023-05-07T00:40:38;6.33;;;4.37;;
22571;SDS011;11452;53.368;14.658;2023-05-07T00:45:44;6.10;;;4.10;;
22571;SDS011;11452;53.368;14.658;2023-05-07T00:50:50;5.93;;;4.53;;
22571;SDS011;11452;53.368;14.658;2023-05-07T00:55:56;5.10;;;4.03;;
22571;SDS011;11452;53.368;14.658;2023-05-07T01:01:01;4.20;;;3.80;;
22571;SDS011;11452;53.368;14.658;2023-05-07T01:06:07;5.57;;;4.20;;
22571;SDS011;11452;53.368;14.658;2023-05-07T01:11:17;6.07;;;4.00;;
22571;SDS011;11452;53.368;14.658;2023-05-07T01:16:24;5.50;;;4.37;;
22571;SDS011;11452;53.368;14.658;2023-05-07T01:21:31;6.77;;;3.90;;
22571;SDS011;11452;53.368;14.658;2023-05-07T01:26:39;4.87;;;3.63;;
22571;SDS011;11452;53.368;14.658;2023-05-07T01:31:48;4.77;;;3.43;;
22571;SDS011;11452;53.368;14.658;2023-05-07T01:36:56;6.37;;;4.57;;
22571;SDS011;11452;53.368;14.658;2023-05-07T01:42:04;5.93;;;4.60;;
22571;SDS011;11452;53.368;14.658;2023-05-07T01:47:10;6.00;;;4.30;;
22571;SDS011;11452;53.368;14.658;2023-05-07T01:52:18;4.60;;;3.93;;
22571;SDS011;11452;53.368;14.658;2023-05-07T01:57:24;5.73;;;4.90;;
22571;SDS011;11452;53.368;14.658;2023-05-07T02:02:31;5.70;;;4.40;;
22571;SDS011;11452;53.368;14.658;2023-05-07T02:07:37;9.60;;;5.13;;
22571;SDS011;11452;53.368;14.658;2023-05-07T02:12:43;5.37;;;4.87;;
22571;SDS011;11452;53.368;14.658;2023-05-07T02:17:59;5.83;;;4.77;;
22571;SDS011;11452;53.368;14.658;2023-05-07T02:23:10;5.13;;;4.23;;
22571;SDS011;11452;53.368;14.658;2023-05-07T02:28:15;5.97;;;4.27;;
22571;SDS011;11452;53.368;14.658;2023-05-07T02:33:23;5.77;;;3.97;;
22571;SDS011;11452;53.368;14.658;2023-05-07T02:38:28;5.33;;;4.50;;
22571;SDS011;11452;53.368;14.658;2023-05-07T02:43:34;5.00;;;4.47;;
22571;SDS011;11452;53.368;14.658;2023-05-07T02:48:40;6.23;;;4.80;;
22571;SDS011;11452;53.368;14.658;2023-05-07T02:53:47;5.30;;;4.17;;
22571;SDS011;11452;53.368;14.658;2023-05-07T02:58:52;6.10;;;4.13;;
22571;SDS011;11452;53.368;14.658;2023-05-07T03:04:00;5.03;;;3.83;;
22571;SDS011;11452;53.368;14.658;2023-05-07T03:09:05;6.20;;;4.33;;
22571;SDS011;11452;53.368;14.658;2023-05-07T03:14:12;7.60;;;5.03;;
22571;SDS011;11452;53.368;14.658;2023-05-07T03:19:17;5.60;;;4.53;;
22571;SDS011;11452;53.368;14.658;2023-05-07T03:24:27;6.43;;;4.40;;
22571;SDS011;11452;53.368;14.658;2023-05-07T03:29:34;5.90;;;4.73;;
22571;SDS011;11452;53.368;14.658;2023-05-07T03:34:39;5.87;;;4.87;;
22571;SDS011;11452;53.368;14.658;2023-05-07T03:39:46;6.40;;;4.83;;
22571;SDS011;11452;53.368;14.658;2023-05-07T03:44:53;8.93;;;4.90;;
22571;SDS011;11452;53.368;14.658;2023-05-07T03:49:58;5.60;;;5.10;;
22571;SDS011;11452;53.368;14.658;2023-05-07T03:55:05;7.13;;;5.10;;
22571;SDS011;11452;53.368;14.658;2023-05-07T04:00:12;7.37;;;5.17;;
22571;SDS011;11452;53.368;14.658;2023-05-07T04:05:23;6.33;;;5.37;;
22571;SDS011;11452;53.368;14.658;2023-05-07T04:10:31;5.63;;;4.67;;
22571;SDS011;11452;53.368;14.658;2023-05-07T04:15:39;7.33;;;5.20;;
22571;SDS011;11452;53.368;14.658;2023-05-07T04:20:47;7.20;;;4.87;;
22571;SDS011;11452;53.368;14.658;2023-05-07T04:25:53;6.27;;;5.30;;
22571;SDS011;11452;53.368;14.658;2023-05-07T04:31:02;7.27;;;5.27;;
22571;SDS011;11452;53.368;14.658;2023-05-07T04:36:08;6.53;;;5.20;;
22571;SDS011;11452;53.368;14.658;2023-05-07T04:41:22;6.33;;;5.40;;
22571;SDS011;11452;53.368;14.658;2023-05-07T04:46:27;8.07;;;5.53;;
22571;SDS011;11452;53.368;14.658;2023-05-07T04:51:33;6.97;;;5.80;;
22571;SDS011;11452;53.368;14.658;2023-05-07T04:56:39;7.83;;;5.30;;
22571;SDS011;11452;53.368;14.658;2023-05-07T05:01:45;7.17;;;5.67;;
22571;SDS011;11452;53.368;14.658;2023-05-07T05:06:51;5.90;;;4.80;;
22571;SDS011;11452;53.368;14.658;2023-05-07T05:11:57;6.30;;;4.90;;
22571;SDS011;11452;53.368;14.658;2023-05-07T05:17:04;8.00;;;5.37;;
22571;SDS011;11452;53.368;14.658;2023-05-07T05:22:11;6.63;;;5.00;;
22571;SDS011;11452;53.368;14.658;2023-05-07T05:27:17;5.80;;;4.83;;
22571;SDS011;11452;53.368;14.658;2023-05-07T05:32:22;5.97;;;4.93;;
22571;SDS011;11452;53.368;14.658;2023-05-07T05:37:31;6.47;;;4.70;;
22571;SDS011;11452;53.368;14.658;2023-05-07T05:42:37;9.17;;;5.30;;
22571;SDS011;11452;53.368;14.658;2023-05-07T05:47:43;6.87;;;4.83;;
22571;SDS011;11452;53.368;14.658;2023-05-07T05:52:50;5.80;;;4.80;;
22571;SDS011;11452;53.368;14.658;2023-05-07T05:57:55;7.00;;;5.07;;
22571;SDS011;11452;53.368;14.658;2023-05-07T06:03:01;10.03;;;4.67;;
22571;SDS011;11452;53.368;14.658;2023-05-07T06:08:08;8.30;;;4.40;;
22571;SDS011;11452;53.368;14.658;2023-05-07T06:13:13;5.83;;;4.70;;
22571;SDS011;11452;53.368;14.658;2023-05-07T06:18:19;5.97;;;4.50;;
22571;SDS011;11452;53.368;14.658;2023-05-07T06:23:25;6.23;;;4.03;;
22571;SDS011;11452;53.368;14.658;2023-05-07T06:28:31;5.77;;;4.10;;
22571;SDS011;11452;53.368;14.658;2023-05-07T06:33:42;5.43;;;3.83;;
22571;SDS011;11452;53.368;14.658;2023-05-07T06:38:50;4.03;;;3.67;;
22571;SDS011;11452;53.368;14.658;2023-05-07T06:43:56;5.67;;;3.50;;
22571;SDS011;11452;53.368;14.658;2023-05-07T06:49:03;2.93;;;2.63;;
22571;SDS011;11452;53.368;14.658;2023-05-07T06:54:09;4.93;;;3.57;;
22571;SDS011;11452;53.368;14.658;2023-05-07T06:59:16;4.47;;;3.50;;
22571;SDS011;11452;53.368;14.658;2023-05-07T07:04:23;4.37;;;3.13;;
22571;SDS011;11452;53.368;14.658;2023-05-07T07:09:31;3.63;;;3.00;;
22571;SDS011;11452;53.368;14.658;2023-05-07T07:14:37;4.93;;;3.87;;
22571;SDS011;11452;53.368;14.658;2023-05-07T07:19:44;4.47;;;3.30;;
22571;SDS011;11452;53.368;14.658;2023-05-07T07:24:49;3.23;;;2.70;;
22571;SDS011;11452;53.368;14.658;2023-05-07T07:29:55;7.03;;;3.50;;
22571;SDS011;11452;53.368;14.658;2023-05-07T07:35:01;4.67;;;3.23;;
22571;SDS011;11452;53.368;14.658;2023-05-07T07:40:08;3.80;;;2.87;;
22571;SDS011;11452;53.368;14.658;2023-05-07T07:45:14;6.00;;;3.13;;
22571;SDS011;11452;53.368;14.658;2023-05-07T07:50:21;5.73;;;3.27;;
22571;SDS011;11452;53.368;14.658;2023-05-07T07:55:29;4.53;;;2.67;;
22571;SDS011;11452;53.368;14.658;2023-05-07T08:00:36;3.60;;;2.80;;
22571;SDS011;11452;53.368;14.658;2023-05-07T08:05:42;4.10;;;3.60;;
22571;SDS011;11452;53.368;14.658;2023-05-07T08:10:48;3.53;;;3.30;;
22571;SDS011;11452;53.368;14.658;2023-05-07T08:16:05;4.37;;;3.10;;
22571;SDS011;11452;53.368;14.658;2023-05-07T08:21:11;5.27;;;3.73;;
22571;SDS011;11452;53.368;14.658;2023-05-07T08:26:17;4.40;;;3.13;;
22571;SDS011;11452;53.368;14.658;2023-05-07T08:31:24;3.40;;;3.10;;
22571;SDS011;11452;53.368;14.658;2023-05-07T08:36:30;4.13;;;2.77;;
22571;SDS011;11452;53.368;14.658;2023-05-07T08:41:36;4.60;;;3.00;;
22571;SDS011;11452;53.368;14.658;2023-05-07T08:46:43;3.33;;;3.00;;
22571;SDS011;11452;53.368;14.658;2023-05-07T08:51:52;4.80;;;2.93;;
22571;SDS011;11452;53.368;14.658;2023-05-07T08:57:00;3.30;;;2.93;;
22571;SDS011;11452;53.368;14.658;2023-05-07T09:02:07;2.37;;;2.17;;
22571;SDS011;11452;53.368;14.658;2023-05-07T09:07:15;3.57;;;2.20;;
22571;SDS011;11452;53.368;14.658;2023-05-07T09:12:22;5.57;;;2.60;;
22571;SDS011;11452;53.368;14.658;2023-05-07T09:17:28;4.83;;;2.03;;
22571;SDS011;11452;53.368;14.658;2023-05-07T09:22:38;2.57;;;2.30;;
22571;SDS011;11452;53.368;14.658;2023-05-07T09:27:46;3.37;;;1.93;;
22571;SDS011;11452;53.368;14.658;2023-05-07T09:32:53;2.47;;;2.27;;
22571;SDS011;11452;53.368;14.658;2023-05-07T09:38:00;2.40;;;2.20;;
22571;SDS011;11452;53.368;14.658;2023-05-07T09:43:09;2.70;;;2.50;;
22571;SDS011;11452;53.368;14.658;2023-05-07T09:48:27;3.63;;;2.70;;
22571;SDS011;11452;53.368;14.658;2023-05-07T09:53:34;3.43;;;2.60;;
22571;SDS011;11452;53.368;14.658;2023-05-07T09:58:41;3.60;;;2.83;;
22571;SDS011;11452;53.368;14.658;2023-05-07T10:03:49;3.67;;;3.00;;
22571;SDS011;11452;53.368;14.658;2023-05-07T10:08:56;2.53;;;2.33;;
22571;SDS011;11452;53.368;14.658;2023-05-07T10:14:03;4.00;;;2.40;;
22571;SDS011;11452;53.368;14.658;2023-05-07T10:19:12;4.73;;;2.30;;
22571;SDS011;11452;53.368;14.658;2023-05-07T10:24:21;2.73;;;2.33;;
22571;SDS011;11452;53.368;14.658;2023-05-07T10:35:06;3.53;;;2.90;;
22571;SDS011;11452;53.368;14.658;2023-05-07T10:40:14;3.53;;;2.53;;
22571;SDS011;11452;53.368;14.658;2023-05-07T10:45:23;2.80;;;2.50;;
22571;SDS011;11452;53.368;14.658;2023-05-07T10:50:30;2.50;;;2.30;;
22571;SDS011;11452;53.368;14.658;2023-05-07T10:55:38;2.47;;;2.20;;
22571;SDS011;11452;53.368;14.658;2023-05-07T11:00:45;2.53;;;2.33;;
22571;SDS011;11452;53.368;14.658;2023-05-07T11:06:08;2.40;;;1.83;;
22571;SDS011;11452;53.368;14.658;2023-05-07T11:11:27;3.20;;;2.40;;
22571;SDS011;11452;53.368;14.658;2023-05-07T11:16:47;2.63;;;2.03;;
22571;SDS011;11452;53.368;14.658;2023-05-07T11:21:58;3.47;;;1.73;;
22571;SDS011;11452;53.368;14.658;2023-05-07T11:27:08;3.53;;;2.43;;
22571;SDS011;11452;53.368;14.658;2023-05-07T11:32:14;2.60;;;2.20;;
22571;SDS011;11452;53.368;14.658;2023-05-07T11:37:22;2.70;;;2.30;;
22571;SDS011;11452;53.368;14.658;2023-05-07T11:42:33;2.47;;;2.27;;
22571;SDS011;11452;53.368;14.658;2023-05-07T11:47:41;2.57;;;2.37;;
22571;SDS011;11452;53.368;14.658;2023-05-07T11:52:51;2.57;;;2.30;;
22571;SDS011;11452;53.368;14.658;2023-05-07T11:57:57;2.80;;;2.37;;
22571;SDS011;11452;53.368;14.658;2023-05-07T12:03:08;2.87;;;1.70;;
22571;SDS011;11452;53.368;14.658;2023-05-07T12:08:15;2.23;;;1.70;;
22571;SDS011;11452;53.368;14.658;2023-05-07T12:13:24;2.27;;;2.13;;
22571;SDS011;11452;53.368;14.658;2023-05-07T12:18:31;3.77;;;2.50;;
22571;SDS011;11452;53.368;14.658;2023-05-07T12:23:39;2.60;;;2.40;;
22571;SDS011;11452;53.368;14.658;2023-05-07T12:28:45;4.00;;;2.00;;
22571;SDS011;11452;53.368;14.658;2023-05-07T12:33:51;2.47;;;2.00;;
22571;SDS011;11452;53.368;14.658;2023-05-07T12:38:57;3.77;;;2.07;;
22571;SDS011;11452;53.368;14.658;2023-05-07T12:44:04;2.33;;;2.13;;
22571;SDS011;11452;53.368;14.658;2023-05-07T12:49:10;2.40;;;2.00;;
22571;SDS011;11452;53.368;14.658;2023-05-07T12:54:34;2.53;;;2.33;;
22571;SDS011;11452;53.368;14.658;2023-05-07T12:59:41;2.80;;;2.17;;
22571;SDS011;11452;53.368;14.658;2023-05-07T13:04:47;2.40;;;2.20;;
22571;SDS011;11452;53.368;14.658;2023-05-07T13:09:53;3.33;;;2.43;;
22571;SDS011;11452;53.368;14.658;2023-05-07T13:14:58;2.83;;;2.37;;
22571;SDS011;11452;53.368;14.658;2023-05-07T13:20:04;4.40;;;2.60;;
22571;SDS011;11452;53.368;14.658;2023-05-07T13:25:12;1.90;;;1.80;;
22571;SDS011;11452;53.368;14.658;2023-05-07T13:30:18;3.27;;;2.33;;
22571;SDS011;11452;53.368;14.658;2023-05-07T13:35:23;2.33;;;1.97;;
22571;SDS011;11452;53.368;14.658;2023-05-07T13:40:29;1.90;;;1.80;;
22571;SDS011;11452;53.368;14.658;2023-05-07T13:45:36;4.93;;;2.80;;
22571;SDS011;11452;53.368;14.658;2023-05-07T13:50:41;2.47;;;2.27;;
22571;SDS011;11452;53.368;14.658;2023-05-07T13:55:47;2.43;;;2.23;;
22571;SDS011;11452;53.368;14.658;2023-05-07T14:00:52;3.67;;;2.60;;
22571;SDS011;11452;53.368;14.658;2023-05-07T14:05:58;4.90;;;2.27;;
22571;SDS011;11452;53.368;14.658;2023-05-07T14:11:05;4.17;;;2.80;;
22571;SDS011;11452;53.368;14.658;2023-05-07T14:16:10;2.90;;;2.20;;
22571;SDS011;11452;53.368;14.658;2023-05-07T14:21:16;2.23;;;2.13;;
22571;SDS011;11452;53.368;14.658;2023-05-07T14:26:21;3.50;;;2.67;;
22571;SDS011;11452;53.368;14.658;2023-05-07T14:31:27;3.10;;;2.10;;
22571;SDS011;11452;53.368;14.658;2023-05-07T14:36:33;2.97;;;2.10;;
22571;SDS011;11452;53.368;14.658;2023-05-07T14:41:38;2.70;;;2.17;;
22571;SDS011;11452;53.368;14.658;2023-05-07T14:46:44;3.10;;;2.50;;
22571;SDS011;11452;53.368;14.658;2023-05-07T14:51:51;2.60;;;2.00;;
22571;SDS011;11452;53.368;14.658;2023-05-07T14:56:56;2.03;;;1.83;;
22571;SDS011;11452;53.368;14.658;2023-05-07T15:02:02;3.90;;;2.30;;
22571;SDS011;11452;53.368;14.658;2023-05-07T15:07:10;2.37;;;2.10;;
22571;SDS011;11452;53.368;14.658;2023-05-07T15:12:18;3.07;;;2.17;;
22571;SDS011;11452;53.368;14.658;2023-05-07T15:17:24;2.13;;;2.03;;
